Aérodrome :
LOGIN :

S'inscrire | Disclaimer

   EN    FR    IT 

 










Légende :    VFR   VFR Marginal   IFR   IFR Intensif   IFR Très Intensif
Visi : 
Plafond : 
>= 8 km
>= 3000ft
5 à 8 km
1000 à 3000 ft
1500m à 5 km
500 à 1000 ft
800 à 1500m
200 à 500 ft
< 800m
< 200 ft
Symboles :   Orages  Brouillard  Fortes neiges  Fortes précipitations  Vent > 20 kt
SIGMETs :   Divers  Orages  Givrage  Turbulence  Onde Orograph.  Cendres Volcan.







- Altitude de l'aérodrome : 13 ft
- Code IATA : LYX
- Voir les cartes d'approche


EGMD - Lydd

DERNIER METAR :
  • 130550Z AUTO 11018KT 9999 NCD 04/01 Q1017

METARs EXPIRÉS :
  • 130520Z AUTO 11018KT 9999 FEW014/// 03/01 Q1017
  • 130450Z AUTO 13017KT 9999 SCT017/// 04/01 Q1018
  • 130420Z AUTO 13014KT 9999 SCT019/// 04/01 Q1018
  • 130350Z AUTO 13015KT 9999 SCT019/// 04/01 Q1018
  • 130320Z AUTO 14014KT 9999 FEW019/// 04/01 Q1018

TAF TAF EGMD
Valide du 13 à 06h jusqu'au 13 à 15h UTC


130451Z 1306/1315 12015KT 9999 SCT020
PROB30
TEMPO 1306/1309 BKN013
ATIS : +44 1797 322 422
Pas de NOTAMs connus pour ce terrain.
1 SIGMET publié pour la FIR London (EGTT) :
 
Turbulence forte
EGTT SIGMET 01 VALID 130330/130700 EGRR
EGTT LONDON FIR SEV TURB FCST W OF LINE N5500 W00400 - N4923 W00510 SFC/FL060 STNR WKN=



MET'MAP, la Météo Aéronautique d'un coup d'oeil ! - Copyright ORBIFLY Décembre 2007 - Disclaimer

ORBIFLY MET'MAP TEAM :

Programmation & Développement : Alexandra Zaïnal
Conception & Développement : Baudouin d'Aumeries
Co-Programmation & Développement : Marc-Olivier Méhu
Soutien technique & logistique : Manuel Goepfert

Contact : metmap@orbifly.com




SOURCES & CREDITS :

   NOAA